sensor_id;sensor_type;location;lat;lon;timestamp;P1;durP1;ratioP1;P2;durP2;ratioP2
41897;SDS011;27576;53.366;-1.498;2023-06-24T00:01:22;6.60;;;2.83;;
41897;SDS011;27576;53.366;-1.498;2023-06-24T00:03:48;3.72;;;2.42;;
41897;SDS011;27576;53.366;-1.498;2023-06-24T00:06:13;5.15;;;2.60;;
41897;SDS011;27576;53.366;-1.498;2023-06-24T00:08:46;3.60;;;2.90;;
41897;SDS011;27576;53.366;-1.498;2023-06-24T00:11:12;3.95;;;2.47;;
41897;SDS011;27576;53.366;-1.498;2023-06-24T00:13:41;2.60;;;2.25;;
41897;SDS011;27576;53.366;-1.498;2023-06-24T00:16:08;2.70;;;2.30;;
41897;SDS011;27576;53.366;-1.498;2023-06-24T00:18:34;2.63;;;2.25;;
41897;SDS011;27576;53.366;-1.498;2023-06-24T00:21:00;2.13;;;1.92;;
41897;SDS011;27576;53.366;-1.498;2023-06-24T00:23:27;4.35;;;2.30;;
41897;SDS011;27576;53.366;-1.498;2023-06-24T00:25:53;3.17;;;2.25;;
41897;SDS011;27576;53.366;-1.498;2023-06-24T00:28:21;3.78;;;2.10;;
41897;SDS011;27576;53.366;-1.498;2023-06-24T00:30:47;2.88;;;1.75;;
41897;SDS011;27576;53.366;-1.498;2023-06-24T00:33:13;4.40;;;2.28;;
41897;SDS011;27576;53.366;-1.498;2023-06-24T00:35:40;4.25;;;1.95;;
41897;SDS011;27576;53.366;-1.498;2023-06-24T00:38:07;5.47;;;1.95;;
41897;SDS011;27576;53.366;-1.498;2023-06-24T00:40:32;2.25;;;1.95;;
41897;SDS011;27576;53.366;-1.498;2023-06-24T00:42:58;3.22;;;1.60;;
41897;SDS011;27576;53.366;-1.498;2023-06-24T00:45:26;3.50;;;1.98;;
41897;SDS011;27576;53.366;-1.498;2023-06-24T00:47:52;3.28;;;1.88;;
41897;SDS011;27576;53.366;-1.498;2023-06-24T00:50:19;5.22;;;1.95;;
41897;SDS011;27576;53.366;-1.498;2023-06-24T00:52:45;2.00;;;1.63;;
41897;SDS011;27576;53.366;-1.498;2023-06-24T00:55:11;1.83;;;1.65;;
41897;SDS011;27576;53.366;-1.498;2023-06-24T00:57:38;3.05;;;1.80;;
41897;SDS011;27576;53.366;-1.498;2023-06-24T01:00:05;2.13;;;1.67;;
41897;SDS011;27576;53.366;-1.498;2023-06-24T01:02:36;3.47;;;2.10;;
41897;SDS011;27576;53.366;-1.498;2023-06-24T01:05:02;2.83;;;1.95;;
41897;SDS011;27576;53.366;-1.498;2023-06-24T01:07:28;3.35;;;1.77;;
41897;SDS011;27576;53.366;-1.498;2023-06-24T01:09:56;1.75;;;1.63;;
41897;SDS011;27576;53.366;-1.498;2023-06-24T01:12:22;3.13;;;1.70;;
41897;SDS011;27576;53.366;-1.498;2023-06-24T01:14:47;3.20;;;1.90;;
41897;SDS011;27576;53.366;-1.498;2023-06-24T01:17:16;2.00;;;1.80;;
41897;SDS011;27576;53.366;-1.498;2023-06-24T01:30:38;2.15;;;1.67;;
41897;SDS011;27576;53.366;-1.498;2023-06-24T01:36:26;1.95;;;1.83;;
41897;SDS011;27576;53.366;-1.498;2023-06-24T01:38:58;1.70;;;1.50;;
41897;SDS011;27576;53.366;-1.498;2023-06-24T01:41:30;3.50;;;2.05;;
41897;SDS011;27576;53.366;-1.498;2023-06-24T01:43:59;3.95;;;1.63;;
41897;SDS011;27576;53.366;-1.498;2023-06-24T01:46:25;2.60;;;2.13;;
41897;SDS011;27576;53.366;-1.498;2023-06-24T01:48:54;2.80;;;2.00;;
41897;SDS011;27576;53.366;-1.498;2023-06-24T01:51:23;3.95;;;1.98;;
41897;SDS011;27576;53.366;-1.498;2023-06-24T01:53:54;2.15;;;1.80;;
41897;SDS011;27576;53.366;-1.498;2023-06-24T01:56:30;1.92;;;1.75;;
41897;SDS011;27576;53.366;-1.498;2023-06-24T01:58:58;3.15;;;1.70;;
41897;SDS011;27576;53.366;-1.498;2023-06-24T02:01:28;3.20;;;1.90;;
41897;SDS011;27576;53.366;-1.498;2023-06-24T02:03:57;2.40;;;2.00;;
41897;SDS011;27576;53.366;-1.498;2023-06-24T02:06:25;2.45;;;2.08;;
41897;SDS011;27576;53.366;-1.498;2023-06-24T02:08:53;2.97;;;2.10;;
41897;SDS011;27576;53.366;-1.498;2023-06-24T02:11:20;2.60;;;2.40;;
41897;SDS011;27576;53.366;-1.498;2023-06-24T02:13:48;2.70;;;2.03;;
41897;SDS011;27576;53.366;-1.498;2023-06-24T02:16:15;2.03;;;1.80;;
41897;SDS011;27576;53.366;-1.498;2023-06-24T02:18:42;2.08;;;1.70;;
41897;SDS011;27576;53.366;-1.498;2023-06-24T02:21:09;2.63;;;1.90;;
41897;SDS011;27576;53.366;-1.498;2023-06-24T02:23:35;5.03;;;2.08;;
41897;SDS011;27576;53.366;-1.498;2023-06-24T02:26:02;2.13;;;1.77;;
41897;SDS011;27576;53.366;-1.498;2023-06-24T02:28:30;2.13;;;1.92;;
41897;SDS011;27576;53.366;-1.498;2023-06-24T02:30:58;3.45;;;1.80;;
41897;SDS011;27576;53.366;-1.498;2023-06-24T02:33:24;2.88;;;2.00;;
41897;SDS011;27576;53.366;-1.498;2023-06-24T02:35:51;3.28;;;2.40;;
41897;SDS011;27576;53.366;-1.498;2023-06-24T02:38:16;3.22;;;1.80;;
41897;SDS011;27576;53.366;-1.498;2023-06-24T02:40:43;4.22;;;2.20;;
41897;SDS011;27576;53.366;-1.498;2023-06-24T02:43:10;3.53;;;1.70;;
41897;SDS011;27576;53.366;-1.498;2023-06-24T02:45:36;3.00;;;2.00;;
41897;SDS011;27576;53.366;-1.498;2023-06-24T02:48:01;2.50;;;1.67;;
41897;SDS011;27576;53.366;-1.498;2023-06-24T02:50:28;3.03;;;2.30;;
41897;SDS011;27576;53.366;-1.498;2023-06-24T02:52:54;2.88;;;2.20;;
41897;SDS011;27576;53.366;-1.498;2023-06-24T02:55:20;4.13;;;2.40;;
41897;SDS011;27576;53.366;-1.498;2023-06-24T02:57:46;3.25;;;2.47;;
41897;SDS011;27576;53.366;-1.498;2023-06-24T03:00:12;3.00;;;2.45;;
41897;SDS011;27576;53.366;-1.498;2023-06-24T03:02:39;3.30;;;2.22;;
41897;SDS011;27576;53.366;-1.498;2023-06-24T03:05:07;2.65;;;2.08;;
41897;SDS011;27576;53.366;-1.498;2023-06-24T03:07:34;2.72;;;2.00;;
41897;SDS011;27576;53.366;-1.498;2023-06-24T03:10:02;3.78;;;2.40;;
41897;SDS011;27576;53.366;-1.498;2023-06-24T03:12:28;5.53;;;2.30;;
41897;SDS011;27576;53.366;-1.498;2023-06-24T03:14:53;2.88;;;2.15;;
41897;SDS011;27576;53.366;-1.498;2023-06-24T03:17:19;3.58;;;2.38;;
41897;SDS011;27576;53.366;-1.498;2023-06-24T03:19:44;3.35;;;2.33;;
41897;SDS011;27576;53.366;-1.498;2023-06-24T03:22:10;3.05;;;2.60;;
41897;SDS011;27576;53.366;-1.498;2023-06-24T03:24:35;3.72;;;2.78;;
41897;SDS011;27576;53.366;-1.498;2023-06-24T03:27:01;4.35;;;2.60;;
41897;SDS011;27576;53.366;-1.498;2023-06-24T03:29:26;5.63;;;2.95;;
41897;SDS011;27576;53.366;-1.498;2023-06-24T03:31:51;2.63;;;2.10;;
41897;SDS011;27576;53.366;-1.498;2023-06-24T03:34:17;4.50;;;2.80;;
41897;SDS011;27576;53.366;-1.498;2023-06-24T03:36:42;3.70;;;2.60;;
41897;SDS011;27576;53.366;-1.498;2023-06-24T03:39:08;4.43;;;2.70;;
41897;SDS011;27576;53.366;-1.498;2023-06-24T03:41:33;4.47;;;2.40;;
41897;SDS011;27576;53.366;-1.498;2023-06-24T03:43:59;5.03;;;2.25;;
41897;SDS011;27576;53.366;-1.498;2023-06-24T03:46:24;4.03;;;2.80;;
41897;SDS011;27576;53.366;-1.498;2023-06-24T03:48:50;4.15;;;2.65;;
41897;SDS011;27576;53.366;-1.498;2023-06-24T03:51:16;2.95;;;2.30;;
41897;SDS011;27576;53.366;-1.498;2023-06-24T03:53:41;3.38;;;2.83;;
41897;SDS011;27576;53.366;-1.498;2023-06-24T03:56:07;6.05;;;3.47;;
41897;SDS011;27576;53.366;-1.498;2023-06-24T03:58:32;4.03;;;3.00;;
41897;SDS011;27576;53.366;-1.498;2023-06-24T04:00:59;4.25;;;3.03;;
41897;SDS011;27576;53.366;-1.498;2023-06-24T04:03:25;2.80;;;2.40;;
41897;SDS011;27576;53.366;-1.498;2023-06-24T04:05:52;2.70;;;2.50;;
41897;SDS011;27576;53.366;-1.498;2023-06-24T04:08:21;3.78;;;2.40;;
41897;SDS011;27576;53.366;-1.498;2023-06-24T04:10:47;3.70;;;2.30;;
41897;SDS011;27576;53.366;-1.498;2023-06-24T04:13:12;4.57;;;2.92;;
41897;SDS011;27576;53.366;-1.498;2023-06-24T04:15:38;3.67;;;2.60;;
41897;SDS011;27576;53.366;-1.498;2023-06-24T04:18:03;2.72;;;2.25;;
41897;SDS011;27576;53.366;-1.498;2023-06-24T04:20:28;4.00;;;2.38;;
41897;SDS011;27576;53.366;-1.498;2023-06-24T04:22:54;3.63;;;2.35;;
41897;SDS011;27576;53.366;-1.498;2023-06-24T04:25:19;4.30;;;3.10;;
41897;SDS011;27576;53.366;-1.498;2023-06-24T04:27:44;3.75;;;2.80;;
41897;SDS011;27576;53.366;-1.498;2023-06-24T04:30:10;5.15;;;2.88;;
41897;SDS011;27576;53.366;-1.498;2023-06-24T04:32:36;3.95;;;2.55;;
41897;SDS011;27576;53.366;-1.498;2023-06-24T04:35:01;4.65;;;2.58;;
41897;SDS011;27576;53.366;-1.498;2023-06-24T04:37:26;2.72;;;2.50;;
41897;SDS011;27576;53.366;-1.498;2023-06-24T04:39:52;4.50;;;2.90;;
41897;SDS011;27576;53.366;-1.498;2023-06-24T04:42:17;3.30;;;2.60;;
41897;SDS011;27576;53.366;-1.498;2023-06-24T04:44:42;2.88;;;2.22;;
41897;SDS011;27576;53.366;-1.498;2023-06-24T04:47:08;2.55;;;2.13;;
41897;SDS011;27576;53.366;-1.498;2023-06-24T04:49:33;7.20;;;2.75;;
41897;SDS011;27576;53.366;-1.498;2023-06-24T04:52:02;3.58;;;2.30;;
41897;SDS011;27576;53.366;-1.498;2023-06-24T04:54:28;2.92;;;2.70;;
41897;SDS011;27576;53.366;-1.498;2023-06-24T04:56:53;2.92;;;2.40;;
41897;SDS011;27576;53.366;-1.498;2023-06-24T04:59:21;2.95;;;2.40;;
41897;SDS011;27576;53.366;-1.498;2023-06-24T05:01:46;3.15;;;2.22;;
41897;SDS011;27576;53.366;-1.498;2023-06-24T05:04:12;3.50;;;2.85;;
41897;SDS011;27576;53.366;-1.498;2023-06-24T05:06:37;2.55;;;2.35;;
41897;SDS011;27576;53.366;-1.498;2023-06-24T05:09:02;3.92;;;2.70;;
41897;SDS011;27576;53.366;-1.498;2023-06-24T05:11:28;3.35;;;2.70;;
41897;SDS011;27576;53.366;-1.498;2023-06-24T05:13:53;3.60;;;2.50;;
41897;SDS011;27576;53.366;-1.498;2023-06-24T05:16:18;5.75;;;2.97;;
41897;SDS011;27576;53.366;-1.498;2023-06-24T05:18:44;2.47;;;2.28;;
41897;SDS011;27576;53.366;-1.498;2023-06-24T05:21:10;3.13;;;2.50;;
41897;SDS011;27576;53.366;-1.498;2023-06-24T05:23:36;2.60;;;2.40;;
41897;SDS011;27576;53.366;-1.498;2023-06-24T05:26:01;2.67;;;2.45;;
41897;SDS011;27576;53.366;-1.498;2023-06-24T05:28:27;3.05;;;2.63;;
41897;SDS011;27576;53.366;-1.498;2023-06-24T05:30:52;3.63;;;2.53;;
41897;SDS011;27576;53.366;-1.498;2023-06-24T05:33:17;3.03;;;2.55;;
41897;SDS011;27576;53.366;-1.498;2023-06-24T05:35:43;3.65;;;2.70;;
41897;SDS011;27576;53.366;-1.498;2023-06-24T05:38:08;2.80;;;2.50;;
41897;SDS011;27576;53.366;-1.498;2023-06-24T05:40:34;2.90;;;2.53;;
41897;SDS011;27576;53.366;-1.498;2023-06-24T05:42:59;2.75;;;2.55;;
41897;SDS011;27576;53.366;-1.498;2023-06-24T05:45:25;4.72;;;2.50;;
41897;SDS011;27576;53.366;-1.498;2023-06-24T05:47:51;2.60;;;2.40;;
41897;SDS011;27576;53.366;-1.498;2023-06-24T05:50:16;3.42;;;2.80;;
41897;SDS011;27576;53.366;-1.498;2023-06-24T05:52:42;4.05;;;2.78;;
41897;SDS011;27576;53.366;-1.498;2023-06-24T05:55:07;3.17;;;2.88;;
41897;SDS011;27576;53.366;-1.498;2023-06-24T05:57:33;4.20;;;3.00;;
41897;SDS011;27576;53.366;-1.498;2023-06-24T05:59:58;3.28;;;2.30;;
41897;SDS011;27576;53.366;-1.498;2023-06-24T06:02:23;5.97;;;3.50;;
41897;SDS011;27576;53.366;-1.498;2023-06-24T06:04:49;5.93;;;2.92;;
41897;SDS011;27576;53.366;-1.498;2023-06-24T06:07:15;3.78;;;2.72;;
41897;SDS011;27576;53.366;-1.498;2023-06-24T06:09:40;5.28;;;3.42;;
41897;SDS011;27576;53.366;-1.498;2023-06-24T06:12:05;6.07;;;2.80;;
41897;SDS011;27576;53.366;-1.498;2023-06-24T06:14:32;5.32;;;3.22;;
41897;SDS011;27576;53.366;-1.498;2023-06-24T06:16:57;6.22;;;3.25;;
41897;SDS011;27576;53.366;-1.498;2023-06-24T06:19:23;3.97;;;3.55;;
41897;SDS011;27576;53.366;-1.498;2023-06-24T06:21:49;3.67;;;2.85;;
41897;SDS011;27576;53.366;-1.498;2023-06-24T06:24:15;4.00;;;3.08;;
41897;SDS011;27576;53.366;-1.498;2023-06-24T06:26:43;3.20;;;2.70;;
41897;SDS011;27576;53.366;-1.498;2023-06-24T06:29:09;3.40;;;3.03;;
41897;SDS011;27576;53.366;-1.498;2023-06-24T06:31:36;4.30;;;3.38;;
41897;SDS011;27576;53.366;-1.498;2023-06-24T06:34:01;4.75;;;3.30;;
41897;SDS011;27576;53.366;-1.498;2023-06-24T06:36:27;5.88;;;3.40;;
41897;SDS011;27576;53.366;-1.498;2023-06-24T06:38:53;3.40;;;3.10;;
41897;SDS011;27576;53.366;-1.498;2023-06-24T06:41:18;3.30;;;3.00;;
41897;SDS011;27576;53.366;-1.498;2023-06-24T06:43:49;4.18;;;2.90;;
41897;SDS011;27576;53.366;-1.498;2023-06-24T06:46:17;3.53;;;3.08;;
41897;SDS011;27576;53.366;-1.498;2023-06-24T06:48:42;4.55;;;2.97;;
41897;SDS011;27576;53.366;-1.498;2023-06-24T06:51:08;3.80;;;3.35;;
41897;SDS011;27576;53.366;-1.498;2023-06-24T06:53:33;5.63;;;3.38;;
41897;SDS011;27576;53.366;-1.498;2023-06-24T06:55:58;5.18;;;3.88;;
41897;SDS011;27576;53.366;-1.498;2023-06-24T06:58:24;3.55;;;3.17;;
41897;SDS011;27576;53.366;-1.498;2023-06-24T07:00:50;4.97;;;3.30;;
41897;SDS011;27576;53.366;-1.498;2023-06-24T07:03:15;5.22;;;3.53;;
41897;SDS011;27576;53.366;-1.498;2023-06-24T07:05:40;4.35;;;3.40;;
41897;SDS011;27576;53.366;-1.498;2023-06-24T07:08:06;3.83;;;3.05;;
41897;SDS011;27576;53.366;-1.498;2023-06-24T07:10:31;3.53;;;2.95;;
41897;SDS011;27576;53.366;-1.498;2023-06-24T07:12:57;4.82;;;3.30;;
41897;SDS011;27576;53.366;-1.498;2023-06-24T07:15:24;3.58;;;2.92;;
41897;SDS011;27576;53.366;-1.498;2023-06-24T07:17:52;4.18;;;3.20;;
41897;SDS011;27576;53.366;-1.498;2023-06-24T07:20:18;3.28;;;2.70;;
41897;SDS011;27576;53.366;-1.498;2023-06-24T07:22:44;6.07;;;3.72;;
41897;SDS011;27576;53.366;-1.498;2023-06-24T07:25:09;3.25;;;2.97;;
41897;SDS011;27576;53.366;-1.498;2023-06-24T07:27:35;4.32;;;3.08;;
41897;SDS011;27576;53.366;-1.498;2023-06-24T07:30:00;3.05;;;2.72;;
41897;SDS011;27576;53.366;-1.498;2023-06-24T07:32:25;3.40;;;3.08;;
41897;SDS011;27576;53.366;-1.498;2023-06-24T07:34:51;3.88;;;2.92;;
41897;SDS011;27576;53.366;-1.498;2023-06-24T07:37:16;3.08;;;2.60;;
41897;SDS011;27576;53.366;-1.498;2023-06-24T07:39:41;3.58;;;2.80;;
41897;SDS011;27576;53.366;-1.498;2023-06-24T07:42:07;3.35;;;3.05;;
41897;SDS011;27576;53.366;-1.498;2023-06-24T07:44:32;3.33;;;2.97;;
41897;SDS011;27576;53.366;-1.498;2023-06-24T07:46:57;3.20;;;2.90;;
41897;SDS011;27576;53.366;-1.498;2023-06-24T07:49:23;3.92;;;2.85;;
41897;SDS011;27576;53.366;-1.498;2023-06-24T07:51:49;4.05;;;2.85;;
41897;SDS011;27576;53.366;-1.498;2023-06-24T07:54:14;4.95;;;2.78;;
41897;SDS011;27576;53.366;-1.498;2023-06-24T07:56:40;4.75;;;2.80;;
41897;SDS011;27576;53.366;-1.498;2023-06-24T07:59:05;3.65;;;2.92;;
41897;SDS011;27576;53.366;-1.498;2023-06-24T08:01:30;5.35;;;2.78;;
41897;SDS011;27576;53.366;-1.498;2023-06-24T08:03:56;5.28;;;2.70;;
41897;SDS011;27576;53.366;-1.498;2023-06-24T08:06:21;3.22;;;2.83;;
41897;SDS011;27576;53.366;-1.498;2023-06-24T08:08:47;2.70;;;2.50;;
41897;SDS011;27576;53.366;-1.498;2023-06-24T08:11:12;2.35;;;2.10;;
41897;SDS011;27576;53.366;-1.498;2023-06-24T08:13:38;2.80;;;2.30;;
41897;SDS011;27576;53.366;-1.498;2023-06-24T08:16:04;2.65;;;2.42;;
41897;SDS011;27576;53.366;-1.498;2023-06-24T08:18:29;3.70;;;2.13;;
41897;SDS011;27576;53.366;-1.498;2023-06-24T08:20:55;2.30;;;1.95;;
41897;SDS011;27576;53.366;-1.498;2023-06-24T08:23:20;2.60;;;2.20;;
41897;SDS011;27576;53.366;-1.498;2023-06-24T08:25:45;1.98;;;1.65;;
41897;SDS011;27576;53.366;-1.498;2023-06-24T08:28:11;2.58;;;1.80;;
41897;SDS011;27576;53.366;-1.498;2023-06-24T08:30:36;2.40;;;1.88;;
41897;SDS011;27576;53.366;-1.498;2023-06-24T08:33:01;2.22;;;1.80;;
41897;SDS011;27576;53.366;-1.498;2023-06-24T08:35:27;2.13;;;1.90;;
41897;SDS011;27576;53.366;-1.498;2023-06-24T08:37:52;4.00;;;2.17;;
41897;SDS011;27576;53.366;-1.498;2023-06-24T08:40:17;2.10;;;1.90;;
41897;SDS011;27576;53.366;-1.498;2023-06-24T08:42:43;2.70;;;2.20;;
41897;SDS011;27576;53.366;-1.498;2023-06-24T08:45:09;3.25;;;1.88;;
41897;SDS011;27576;53.366;-1.498;2023-06-24T08:47:34;1.90;;;1.80;;
41897;SDS011;27576;53.366;-1.498;2023-06-24T08:50:04;2.20;;;2.00;;
41897;SDS011;27576;53.366;-1.498;2023-06-24T08:52:35;2.38;;;1.92;;
41897;SDS011;27576;53.366;-1.498;2023-06-24T08:55:01;5.03;;;2.20;;
41897;SDS011;27576;53.366;-1.498;2023-06-24T08:57:29;3.58;;;2.00;;
41897;SDS011;27576;53.366;-1.498;2023-06-24T08:59:54;2.00;;;1.90;;
41897;SDS011;27576;53.366;-1.498;2023-06-24T09:02:20;3.35;;;2.38;;
41897;SDS011;27576;53.366;-1.498;2023-06-24T09:04:45;2.85;;;2.33;;
41897;SDS011;27576;53.366;-1.498;2023-06-24T09:07:11;3.65;;;2.83;;
41897;SDS011;27576;53.366;-1.498;2023-06-24T09:09:46;3.40;;;2.50;;
41897;SDS011;27576;53.366;-1.498;2023-06-24T09:12:12;2.88;;;2.58;;
41897;SDS011;27576;53.366;-1.498;2023-06-24T09:14:39;2.97;;;2.20;;
41897;SDS011;27576;53.366;-1.498;2023-06-24T09:17:05;2.45;;;2.25;;
41897;SDS011;27576;53.366;-1.498;2023-06-24T09:19:31;3.20;;;2.42;;
41897;SDS011;27576;53.366;-1.498;2023-06-24T09:22:04;2.10;;;1.90;;
41897;SDS011;27576;53.366;-1.498;2023-06-24T09:24:34;5.53;;;2.40;;
41897;SDS011;27576;53.366;-1.498;2023-06-24T09:27:01;3.53;;;2.30;;
41897;SDS011;27576;53.366;-1.498;2023-06-24T09:29:29;2.13;;;1.92;;
41897;SDS011;27576;53.366;-1.498;2023-06-24T09:31:57;3.05;;;2.10;;
41897;SDS011;27576;53.366;-1.498;2023-06-24T09:34:24;2.33;;;2.10;;
41897;SDS011;27576;53.366;-1.498;2023-06-24T09:36:54;2.45;;;2.13;;
41897;SDS011;27576;53.366;-1.498;2023-06-24T09:39:21;2.20;;;1.98;;
41897;SDS011;27576;53.366;-1.498;2023-06-24T09:41:50;3.58;;;1.98;;
41897;SDS011;27576;53.366;-1.498;2023-06-24T09:44:16;2.72;;;2.03;;
41897;SDS011;27576;53.366;-1.498;2023-06-24T09:46:44;4.40;;;2.72;;
41897;SDS011;27576;53.366;-1.498;2023-06-24T09:49:10;3.03;;;2.40;;
41897;SDS011;27576;53.366;-1.498;2023-06-24T09:51:39;1.80;;;1.70;;
41897;SDS011;27576;53.366;-1.498;2023-06-24T09:54:08;2.67;;;1.88;;
41897;SDS011;27576;53.366;-1.498;2023-06-24T09:56:35;2.97;;;1.80;;
41897;SDS011;27576;53.366;-1.498;2023-06-24T09:59:04;8.10;;;1.83;;
41897;SDS011;27576;53.366;-1.498;2023-06-24T10:01:30;2.00;;;1.60;;
41897;SDS011;27576;53.366;-1.498;2023-06-24T10:03:58;1.63;;;1.50;;
41897;SDS011;27576;53.366;-1.498;2023-06-24T10:06:24;1.80;;;1.65;;
41897;SDS011;27576;53.366;-1.498;2023-06-24T10:08:50;2.00;;;1.80;;
41897;SDS011;27576;53.366;-1.498;2023-06-24T10:11:17;1.67;;;1.58;;
41897;SDS011;27576;53.366;-1.498;2023-06-24T10:13:42;3.05;;;1.85;;
41897;SDS011;27576;53.366;-1.498;2023-06-24T10:16:08;2.45;;;2.03;;
41897;SDS011;27576;53.366;-1.498;2023-06-24T10:18:34;1.58;;;1.45;;
41897;SDS011;27576;53.366;-1.498;2023-06-24T10:21:01;2.25;;;1.73;;
41897;SDS011;27576;53.366;-1.498;2023-06-24T10:25:58;3.17;;;1.35;;
41897;SDS011;27576;53.366;-1.498;2023-06-24T10:28:24;2.00;;;1.50;;
41897;SDS011;27576;53.366;-1.498;2023-06-24T10:30:54;3.20;;;1.50;;
41897;SDS011;27576;53.366;-1.498;2023-06-24T10:33:20;2.03;;;1.73;;
41897;SDS011;27576;53.366;-1.498;2023-06-24T10:35:45;2.60;;;1.48;;
41897;SDS011;27576;53.366;-1.498;2023-06-24T10:38:11;2.03;;;1.70;;
41897;SDS011;27576;53.366;-1.498;2023-06-24T10:40:37;2.03;;;1.50;;
41897;SDS011;27576;53.366;-1.498;2023-06-24T10:43:25;1.77;;;1.52;;
41897;SDS011;27576;53.366;-1.498;2023-06-24T10:45:54;1.52;;;1.42;;
41897;SDS011;27576;53.366;-1.498;2023-06-24T10:48:21;1.58;;;1.45;;
41897;SDS011;27576;53.366;-1.498;2023-06-24T10:50:47;2.17;;;1.50;;
41897;SDS011;27576;53.366;-1.498;2023-06-24T10:53:14;2.65;;;1.52;;
41897;SDS011;27576;53.366;-1.498;2023-06-24T10:55:40;2.40;;;1.40;;
41897;SDS011;27576;53.366;-1.498;2023-06-24T10:58:09;1.63;;;1.52;;
41897;SDS011;27576;53.366;-1.498;2023-06-24T11:00:36;2.92;;;1.50;;
41897;SDS011;27576;53.366;-1.498;2023-06-24T11:03:08;2.20;;;1.55;;
41897;SDS011;27576;53.366;-1.498;2023-06-24T11:05:34;3.15;;;1.27;;
41897;SDS011;27576;53.366;-1.498;2023-06-24T11:08:03;1.30;;;1.20;;
41897;SDS011;27576;53.366;-1.498;2023-06-24T11:10:30;1.95;;;1.27;;
41897;SDS011;27576;53.366;-1.498;2023-06-24T11:12:55;1.13;;;1.00;;
41897;SDS011;27576;53.366;-1.498;2023-06-24T11:15:23;1.35;;;1.25;;
41897;SDS011;27576;53.366;-1.498;2023-06-24T11:17:50;1.90;;;1.20;;
41897;SDS011;27576;53.366;-1.498;2023-06-24T11:20:16;1.17;;;1.08;;
41897;SDS011;27576;53.366;-1.498;2023-06-24T11:22:42;1.88;;;1.40;;
41897;SDS011;27576;53.366;-1.498;2023-06-24T11:25:16;1.30;;;1.20;;
41897;SDS011;27576;53.366;-1.498;2023-06-24T11:27:43;1.25;;;1.15;;
41897;SDS011;27576;53.366;-1.498;2023-06-24T11:30:08;1.80;;;1.20;;
41897;SDS011;27576;53.366;-1.498;2023-06-24T11:32:34;1.30;;;1.20;;
41897;SDS011;27576;53.366;-1.498;2023-06-24T11:35:00;4.88;;;1.10;;
41897;SDS011;27576;53.366;-1.498;2023-06-24T11:37:30;2.00;;;1.10;;
41897;SDS011;27576;53.366;-1.498;2023-06-24T11:40:00;1.45;;;0.95;;
41897;SDS011;27576;53.366;-1.498;2023-06-24T11:42:30;1.13;;;1.00;;
41897;SDS011;27576;53.366;-1.498;2023-06-24T11:44:59;1.42;;;1.00;;
41897;SDS011;27576;53.366;-1.498;2023-06-24T11:47:26;2.67;;;1.15;;
41897;SDS011;27576;53.366;-1.498;2023-06-24T11:49:52;1.00;;;0.90;;
41897;SDS011;27576;53.366;-1.498;2023-06-24T11:55:22;2.47;;;1.13;;
41897;SDS011;27576;53.366;-1.498;2023-06-24T12:00:30;1.83;;;1.00;;
41897;SDS011;27576;53.366;-1.498;2023-06-24T12:02:58;1.20;;;1.10;;
41897;SDS011;27576;53.366;-1.498;2023-06-24T12:05:29;1.90;;;0.85;;
41897;SDS011;27576;53.366;-1.498;2023-06-24T12:07:56;1.02;;;0.93;;
41897;SDS011;27576;53.366;-1.498;2023-06-24T12:10:23;1.75;;;0.93;;
41897;SDS011;27576;53.366;-1.498;2023-06-24T12:12:48;0.80;;;0.80;;
41897;SDS011;27576;53.366;-1.498;2023-06-24T12:15:14;1.20;;;1.10;;
41897;SDS011;27576;53.366;-1.498;2023-06-24T12:17:39;1.60;;;0.90;;
41897;SDS011;27576;53.366;-1.498;2023-06-24T12:20:05;1.88;;;1.25;;
41897;SDS011;27576;53.366;-1.498;2023-06-24T12:22:31;0.82;;;0.82;;
41897;SDS011;27576;53.366;-1.498;2023-06-24T12:24:56;1.88;;;1.30;;
41897;SDS011;27576;53.366;-1.498;2023-06-24T12:27:21;1.38;;;1.10;;
41897;SDS011;27576;53.366;-1.498;2023-06-24T12:29:47;1.92;;;1.08;;
41897;SDS011;27576;53.366;-1.498;2023-06-24T12:32:12;1.20;;;1.00;;
41897;SDS011;27576;53.366;-1.498;2023-06-24T12:34:38;1.60;;;1.10;;
41897;SDS011;27576;53.366;-1.498;2023-06-24T12:37:03;1.60;;;1.02;;
41897;SDS011;27576;53.366;-1.498;2023-06-24T12:39:29;5.25;;;1.00;;
41897;SDS011;27576;53.366;-1.498;2023-06-24T12:41:54;1.98;;;1.02;;
41897;SDS011;27576;53.366;-1.498;2023-06-24T12:44:19;1.58;;;0.80;;
41897;SDS011;27576;53.366;-1.498;2023-06-24T12:46:44;1.88;;;0.90;;
41897;SDS011;27576;53.366;-1.498;2023-06-24T12:49:10;2.45;;;0.80;;
41897;SDS011;27576;53.366;-1.498;2023-06-24T12:51:35;1.38;;;0.93;;
41897;SDS011;27576;53.366;-1.498;2023-06-24T12:54:01;2.05;;;1.02;;
41897;SDS011;27576;53.366;-1.498;2023-06-24T12:56:26;1.70;;;0.70;;
41897;SDS011;27576;53.366;-1.498;2023-06-24T12:58:51;1.40;;;1.05;;
41897;SDS011;27576;53.366;-1.498;2023-06-24T13:01:17;1.10;;;1.00;;
41897;SDS011;27576;53.366;-1.498;2023-06-24T13:03:42;1.00;;;0.90;;
41897;SDS011;27576;53.366;-1.498;2023-06-24T13:06:08;1.42;;;1.05;;
41897;SDS011;27576;53.366;-1.498;2023-06-24T13:08:33;1.80;;;1.00;;
41897;SDS011;27576;53.366;-1.498;2023-06-24T13:10:59;1.75;;;1.10;;
41897;SDS011;27576;53.366;-1.498;2023-06-24T13:13:24;1.10;;;1.05;;
41897;SDS011;27576;53.366;-1.498;2023-06-24T13:15:50;2.05;;;0.90;;
41897;SDS011;27576;53.366;-1.498;2023-06-24T13:18:15;1.83;;;0.90;;
41897;SDS011;27576;53.366;-1.498;2023-06-24T13:20:42;1.38;;;1.10;;
41897;SDS011;27576;53.366;-1.498;2023-06-24T13:23:08;0.98;;;0.90;;
41897;SDS011;27576;53.366;-1.498;2023-06-24T13:25:34;1.00;;;0.90;;
41897;SDS011;27576;53.366;-1.498;2023-06-24T13:27:59;1.17;;;1.08;;
41897;SDS011;27576;53.366;-1.498;2023-06-24T13:30:25;0.85;;;0.85;;
41897;SDS011;27576;53.366;-1.498;2023-06-24T13:32:50;2.15;;;1.20;;
41897;SDS011;27576;53.366;-1.498;2023-06-24T13:35:16;1.20;;;1.10;;
41897;SDS011;27576;53.366;-1.498;2023-06-24T13:37:41;2.08;;;1.13;;
41897;SDS011;27576;53.366;-1.498;2023-06-24T13:40:08;2.47;;;1.20;;
41897;SDS011;27576;53.366;-1.498;2023-06-24T13:42:35;2.58;;;1.02;;
41897;SDS011;27576;53.366;-1.498;2023-06-24T13:45:00;1.38;;;1.20;;
41897;SDS011;27576;53.366;-1.498;2023-06-24T13:47:26;0.95;;;0.80;;
41897;SDS011;27576;53.366;-1.498;2023-06-24T13:49:51;1.58;;;1.20;;
41897;SDS011;27576;53.366;-1.498;2023-06-24T13:52:17;1.17;;;1.08;;
41897;SDS011;27576;53.366;-1.498;2023-06-24T13:54:42;1.20;;;1.10;;
41897;SDS011;27576;53.366;-1.498;2023-06-24T13:57:08;1.50;;;0.98;;
41897;SDS011;27576;53.366;-1.498;2023-06-24T13:59:33;3.08;;;1.10;;
41897;SDS011;27576;53.366;-1.498;2023-06-24T14:01:58;1.38;;;1.13;;
41897;SDS011;27576;53.366;-1.498;2023-06-24T14:04:24;1.65;;;1.30;;
41897;SDS011;27576;53.366;-1.498;2023-06-24T14:06:49;2.47;;;1.20;;
41897;SDS011;27576;53.366;-1.498;2023-06-24T14:09:15;1.33;;;1.05;;
41897;SDS011;27576;53.366;-1.498;2023-06-24T14:11:40;2.30;;;1.20;;
41897;SDS011;27576;53.366;-1.498;2023-06-24T14:14:05;1.20;;;1.10;;
41897;SDS011;27576;53.366;-1.498;2023-06-24T14:16:31;2.33;;;1.30;;
41897;SDS011;27576;53.366;-1.498;2023-06-24T14:18:56;1.38;;;0.93;;
41897;SDS011;27576;53.366;-1.498;2023-06-24T14:21:21;1.13;;;1.02;;
41897;SDS011;27576;53.366;-1.498;2023-06-24T14:23:47;1.23;;;1.10;;
41897;SDS011;27576;53.366;-1.498;2023-06-24T14:26:12;2.15;;;1.20;;
41897;SDS011;27576;53.366;-1.498;2023-06-24T14:28:38;0.90;;;0.90;;
41897;SDS011;27576;53.366;-1.498;2023-06-24T14:31:03;1.20;;;1.10;;
41897;SDS011;27576;53.366;-1.498;2023-06-24T14:33:28;3.70;;;1.40;;
41897;SDS011;27576;53.366;-1.498;2023-06-24T14:35:54;1.40;;;1.10;;
41897;SDS011;27576;53.366;-1.498;2023-06-24T14:38:19;1.23;;;1.13;;
41897;SDS011;27576;53.366;-1.498;2023-06-24T14:40:44;2.08;;;1.63;;
41897;SDS011;27576;53.366;-1.498;2023-06-24T14:43:10;2.55;;;1.40;;
41897;SDS011;27576;53.366;-1.498;2023-06-24T14:45:36;1.20;;;1.10;;
41897;SDS011;27576;53.366;-1.498;2023-06-24T14:48:01;3.95;;;1.30;;
41897;SDS011;27576;53.366;-1.498;2023-06-24T14:50:27;3.30;;;1.30;;